createdAt,value
2018-09-23T00:00:36.948Z,21.06
2018-09-23T00:01:37.140Z,21.06
2018-09-23T00:02:37.152Z,21.05
2018-09-23T00:03:36.867Z,21.08
2018-09-23T00:04:36.978Z,21.06
2018-09-23T00:05:36.939Z,21.04
2018-09-23T00:06:36.784Z,21.08
2018-09-23T00:07:36.915Z,21.06
2018-09-23T00:08:37.133Z,21.06
2018-09-23T00:09:36.816Z,21.04
2018-09-23T00:10:36.914Z,21.05
2018-09-23T00:11:36.924Z,21.06
2018-09-23T00:12:36.892Z,21.06
2018-09-23T00:13:36.858Z,21.03
2018-09-23T00:14:36.642Z,21.06
2018-09-23T00:15:36.752Z,21.06
2018-09-23T00:16:36.875Z,21.08
2018-09-23T00:17:37.172Z,21.06
2018-09-23T00:18:36.714Z,21.06
2018-09-23T00:19:36.824Z,21.06
2018-09-23T00:20:36.987Z,21.06
2018-09-23T00:21:36.922Z,21.06
2018-09-23T00:22:36.829Z,21.06
2018-09-23T00:23:37.849Z,21.06
2018-09-23T00:24:37.050Z,21.06
2018-09-23T00:25:36.923Z,21.06
2018-09-23T00:26:36.785Z,21.08
2018-09-23T00:27:36.884Z,21.05
2018-09-23T00:28:37.067Z,21.07
2018-09-23T00:29:36.664Z,21.05
2018-09-23T00:30:37.070Z,21.05
2018-09-23T00:31:36.864Z,21.06
2018-09-23T00:32:36.730Z,21.06
2018-09-23T00:33:36.926Z,21.05
2018-09-23T00:34:36.889Z,21.05
2018-09-23T00:35:36.878Z,21.06
2018-09-23T00:36:36.756Z,21.05
2018-09-23T00:37:36.828Z,21.04
2018-09-23T00:38:36.960Z,21.05
2018-09-23T00:39:36.983Z,21.04
2018-09-23T00:40:36.957Z,21.04
2018-09-23T00:41:37.013Z,21.07
2018-09-23T00:42:36.696Z,21.04
2018-09-23T00:43:37.020Z,21.04
2018-09-23T00:44:37.234Z,21.05
2018-09-23T00:45:37.246Z,21.06
2018-09-23T00:46:36.774Z,21.06
2018-09-23T00:47:36.690Z,21.06
2018-09-23T00:48:36.889Z,21.04
2018-09-23T00:49:36.830Z,21.05
2018-09-23T00:50:37.113Z,21.02
2018-09-23T00:51:36.761Z,21.02
2018-09-23T00:52:36.933Z,21.05
2018-09-23T00:53:37.042Z,21.03
2018-09-23T00:54:37.152Z,21.02
2018-09-23T00:55:36.941Z,21.04
2018-09-23T00:56:36.826Z,21.04
2018-09-23T00:57:37.068Z,21.04
2018-09-23T00:58:36.750Z,21.04
2018-09-23T00:59:36.803Z,21.04
2018-09-23T01:00:36.830Z,21.06
2018-09-23T01:01:36.723Z,21.04
2018-09-23T01:02:36.683Z,21.03
2018-09-23T01:03:36.907Z,21.02
2018-09-23T01:04:36.816Z,21.03
2018-09-23T01:05:36.837Z,21.03
2018-09-23T01:06:36.805Z,21.02
2018-09-23T01:07:36.857Z,21.02
2018-09-23T01:08:37.027Z,21.02
2018-09-23T01:09:36.930Z,21.03
2018-09-23T01:10:36.692Z,21.02
2018-09-23T01:11:37.004Z,21.03
2018-09-23T01:12:36.833Z,21.04
2018-09-23T01:13:36.801Z,21.02
2018-09-23T01:14:36.706Z,21.02
2018-09-23T01:15:36.978Z,21.02
2018-09-23T01:16:36.862Z,21.05
2018-09-23T01:17:36.965Z,21.05
2018-09-23T01:18:36.791Z,21.02
2018-09-23T01:19:36.741Z,21.04
2018-09-23T01:20:36.768Z,21.01
2018-09-23T01:21:37.344Z,21.02
2018-09-23T01:22:37.037Z,21.02
2018-09-23T01:23:37.052Z,21.04
2018-09-23T01:24:36.691Z,21.04
2018-09-23T01:25:37.153Z,21.04
2018-09-23T01:26:36.765Z,21.02
2018-09-23T01:27:36.798Z,21.02
2018-09-23T01:28:36.909Z,21.02
2018-09-23T01:29:37.109Z,21.01
2018-09-23T01:30:37.098Z,21.01
2018-09-23T01:31:36.735Z,21.02
2018-09-23T01:32:36.686Z,21
2018-09-23T01:33:36.782Z,21.02
2018-09-23T01:34:36.891Z,21
2018-09-23T01:35:36.658Z,21.03
2018-09-23T01:36:36.975Z,21
2018-09-23T01:37:36.825Z,21.01
2018-09-23T01:38:37.039Z,21.02
2018-09-23T01:39:37.145Z,21.02
2018-09-23T01:40:36.969Z,21
2018-09-23T01:41:36.706Z,21.02
2018-09-23T01:42:36.826Z,21.01
2018-09-23T01:43:36.990Z,21.02
2018-09-23T01:44:36.876Z,21.01
2018-09-23T01:45:36.924Z,21.01
2018-09-23T01:46:37.118Z,21.03
2018-09-23T01:47:36.895Z,21.02
2018-09-23T01:48:37.011Z,21.02
2018-09-23T01:49:36.748Z,21.02
2018-09-23T01:50:36.817Z,21.02
2018-09-23T01:51:36.808Z,21.02
2018-09-23T01:52:36.826Z,21.01
2018-09-23T01:53:36.855Z,21.01
2018-09-23T01:54:37.037Z,21.01
2018-09-23T01:55:36.822Z,21.01
2018-09-23T01:56:36.858Z,21
2018-09-23T01:57:36.762Z,20.98
2018-09-23T01:58:36.748Z,21.02
2018-09-23T01:59:36.999Z,21.02
2018-09-23T02:00:36.823Z,21
2018-09-23T02:01:36.724Z,21.01
2018-09-23T02:02:36.724Z,21
2018-09-23T02:03:36.828Z,20.98
2018-09-23T02:04:37.224Z,21
2018-09-23T02:05:36.686Z,20.96
2018-09-23T02:06:36.852Z,21
2018-09-23T02:07:36.894Z,21.02
2018-09-23T02:08:36.965Z,21.01
2018-09-23T02:09:37.034Z,20.99
2018-09-23T02:10:36.864Z,21.02
2018-09-23T02:11:36.667Z,21.02
2018-09-23T02:12:36.787Z,21
2018-09-23T02:13:37.223Z,20.99
2018-09-23T02:14:36.639Z,20.96
2018-09-23T02:15:37.040Z,20.98
2018-09-23T02:16:36.926Z,20.99
2018-09-23T02:17:36.906Z,21
2018-09-23T02:18:36.729Z,20.99
2018-09-23T02:19:36.825Z,20.99
2018-09-23T02:20:36.705Z,20.96
2018-09-23T02:21:36.998Z,20.99
2018-09-23T02:22:37.044Z,21
2018-09-23T02:23:36.682Z,20.98
2018-09-23T02:24:37.607Z,20.96
2018-09-23T02:25:36.864Z,20.98
2018-09-23T02:26:36.875Z,20.98
2018-09-23T02:27:36.989Z,20.99
2018-09-23T02:28:37.089Z,20.96
2018-09-23T02:29:36.787Z,20.99
2018-09-23T02:30:36.917Z,21
2018-09-23T02:31:37.178Z,20.98
2018-09-23T02:32:36.809Z,20.96
2018-09-23T02:33:37.212Z,20.98
2018-09-23T02:34:36.998Z,21.01
2018-09-23T02:35:36.980Z,20.98
2018-09-23T02:36:37.042Z,20.96
2018-09-23T02:37:36.810Z,20.99
2018-09-23T02:38:37.163Z,20.98
2018-09-23T02:39:36.908Z,20.96
2018-09-23T02:40:36.889Z,20.99
2018-09-23T02:41:36.948Z,20.98
2018-09-23T02:42:36.856Z,20.98
2018-09-23T02:43:36.756Z,20.96
2018-09-23T02:44:36.868Z,20.96
2018-09-23T02:45:36.809Z,20.94
2018-09-23T02:46:37.013Z,20.96
2018-09-23T02:47:36.827Z,20.96
2018-09-23T02:48:36.924Z,20.95
2018-09-23T02:49:36.939Z,20.96
2018-09-23T02:50:36.771Z,20.95
2018-09-23T02:51:36.808Z,20.95
2018-09-23T02:52:37.055Z,20.96
2018-09-23T02:53:37.035Z,20.95
2018-09-23T02:54:36.852Z,20.95
2018-09-23T02:55:36.840Z,20.95
2018-09-23T02:56:36.755Z,20.98
2018-09-23T02:57:36.781Z,20.96
2018-09-23T02:58:36.855Z,20.98
2018-09-23T02:59:37.230Z,20.96
2018-09-23T03:00:37.056Z,20.95
2018-09-23T03:01:37.056Z,20.96
2018-09-23T03:02:36.782Z,20.96
2018-09-23T03:03:36.994Z,20.95
2018-09-23T03:04:36.735Z,20.96
2018-09-23T03:05:36.824Z,20.94
2018-09-23T03:06:36.745Z,20.98
2018-09-23T03:07:36.951Z,20.96
2018-09-23T03:08:37.069Z,20.96
2018-09-23T03:09:36.749Z,20.98
2018-09-23T03:10:36.751Z,20.96
2018-09-23T03:11:37.162Z,20.94
2018-09-23T03:12:36.829Z,20.94
2018-09-23T03:13:36.863Z,20.93
2018-09-23T03:14:36.943Z,20.93
2018-09-23T03:15:37.116Z,20.95
2018-09-23T03:16:36.908Z,20.95
2018-09-23T03:17:36.694Z,20.96
2018-09-23T03:18:37.063Z,20.93
2018-09-23T03:19:36.885Z,20.95
2018-09-23T03:20:36.706Z,20.95
2018-09-23T03:21:36.655Z,20.95
2018-09-23T03:22:36.891Z,20.95
2018-09-23T03:23:36.994Z,20.96
2018-09-23T03:24:36.700Z,20.94
2018-09-23T03:25:36.699Z,20.94
2018-09-23T03:26:36.932Z,20.93
2018-09-23T03:27:36.943Z,20.94
2018-09-23T03:28:36.865Z,20.95
2018-09-23T03:29:36.875Z,20.94
2018-09-23T03:30:36.855Z,20.92
2018-09-23T03:31:36.907Z,20.96
2018-09-23T03:32:36.998Z,20.96
2018-09-23T03:33:36.839Z,20.95
2018-09-23T03:34:36.903Z,20.93
2018-09-23T03:35:37.037Z,20.93
2018-09-23T03:36:36.861Z,20.94
2018-09-23T03:37:36.840Z,20.93
2018-09-23T03:38:36.877Z,20.92
2018-09-23T03:39:37.084Z,20.91
2018-09-23T03:40:37.362Z,20.93
2018-09-23T03:41:37.130Z,20.91
2018-09-23T03:42:36.991Z,20.92
2018-09-23T03:43:36.910Z,20.94
2018-09-23T03:44:37.017Z,20.92
2018-09-23T03:45:36.842Z,20.92
2018-09-23T03:46:36.917Z,20.93
2018-09-23T03:47:36.877Z,20.93
2018-09-23T03:48:36.828Z,20.93
2018-09-23T03:49:36.874Z,20.94
2018-09-23T03:50:37.017Z,20.94
2018-09-23T03:51:36.869Z,20.93
2018-09-23T03:52:37.073Z,20.93
2018-09-23T03:53:37.001Z,20.95
2018-09-23T03:54:36.809Z,20.94
2018-09-23T03:55:37.245Z,20.93
2018-09-23T03:56:36.964Z,20.92
2018-09-23T03:57:36.768Z,20.92
2018-09-23T03:58:36.858Z,20.92
2018-09-23T03:59:37.002Z,20.93
2018-09-23T04:00:36.745Z,20.92
2018-09-23T04:01:36.835Z,20.92
2018-09-23T04:02:37.064Z,20.93
2018-09-23T04:03:36.958Z,20.92
2018-09-23T04:04:36.861Z,20.91
2018-09-23T04:05:36.817Z,20.92
2018-09-23T04:06:37.049Z,20.93
2018-09-23T04:08:36.930Z,20.93
2018-09-23T04:09:37.206Z,20.92
2018-09-23T04:10:36.659Z,20.93
2018-09-23T04:11:36.651Z,20.93
2018-09-23T04:12:36.920Z,20.94
2018-09-23T04:13:37.253Z,20.92
2018-09-23T04:14:36.745Z,20.91
2018-09-23T04:15:36.758Z,20.92
2018-09-23T04:16:36.732Z,20.94
2018-09-23T04:17:37.087Z,20.92
2018-09-23T04:18:36.921Z,20.91
2018-09-23T04:19:37.008Z,20.92
2018-09-23T04:20:36.705Z,20.93
2018-09-23T04:21:36.735Z,20.92
2018-09-23T04:22:36.783Z,20.93
2018-09-23T04:23:36.627Z,20.94
2018-09-23T04:24:36.832Z,20.93
2018-09-23T04:25:36.847Z,20.94
2018-09-23T04:26:37.161Z,20.93
2018-09-23T04:27:36.712Z,20.93
2018-09-23T04:28:36.908Z,20.96
2018-09-23T04:29:36.935Z,20.93
2018-09-23T04:30:36.779Z,20.93
2018-09-23T04:31:38.354Z,20.95
2018-09-23T04:32:36.646Z,20.92
2018-09-23T04:33:36.700Z,20.96
2018-09-23T04:34:36.805Z,20.96
2018-09-23T04:35:36.738Z,20.94
2018-09-23T04:36:36.691Z,20.94
2018-09-23T04:37:36.795Z,20.94
2018-09-23T04:38:36.761Z,20.95
2018-09-23T04:39:36.699Z,20.92
2018-09-23T04:40:36.711Z,20.95
2018-09-23T04:41:36.978Z,20.95
2018-09-23T04:42:36.788Z,20.95
2018-09-23T04:43:36.806Z,20.98
2018-09-23T04:44:36.857Z,20.95
2018-09-23T04:45:37.099Z,20.96
2018-09-23T04:46:39.123Z,20.96
2018-09-23T04:47:36.629Z,20.94
2018-09-23T04:48:36.606Z,20.94
2018-09-23T04:49:37.693Z,20.94
2018-09-23T04:50:36.965Z,20.94
2018-09-23T04:51:36.713Z,20.93
2018-09-23T04:52:36.802Z,20.95
2018-09-23T04:53:36.710Z,20.93
2018-09-23T04:54:36.791Z,20.93
2018-09-23T04:55:36.728Z,20.95
2018-09-23T04:56:36.644Z,20.94
2018-09-23T04:57:36.610Z,20.94
2018-09-23T04:59:38.295Z,20.94
2018-09-23T05:00:36.646Z,20.95
2018-09-23T05:01:36.947Z,20.95
2018-09-23T05:02:37.052Z,20.96
2018-09-23T05:03:36.645Z,20.96
2018-09-23T05:04:36.874Z,20.93
2018-09-23T05:05:37.228Z,20.96
2018-09-23T05:06:36.689Z,20.94
2018-09-23T05:07:36.714Z,20.96
2018-09-23T05:08:36.993Z,20.95
2018-09-23T05:09:36.722Z,20.96
2018-09-23T05:10:36.905Z,20.95
2018-09-23T05:11:36.729Z,20.95
2018-09-23T05:12:36.734Z,20.95
2018-09-23T05:13:36.840Z,20.95
2018-09-23T05:14:36.583Z,20.98
2018-09-23T05:15:36.822Z,20.95
2018-09-23T05:16:36.678Z,20.96
2018-09-23T05:17:36.729Z,20.98
2018-09-23T05:18:36.919Z,20.93
2018-09-23T05:19:37.283Z,20.95
2018-09-23T05:20:37.434Z,20.96
2018-09-23T05:21:36.816Z,20.98
2018-09-23T05:22:36.731Z,20.95
2018-09-23T05:23:36.813Z,20.95
2018-09-23T05:24:36.844Z,20.93
2018-09-23T05:25:36.616Z,20.96
2018-09-23T05:26:36.884Z,20.95
2018-09-23T05:27:36.570Z,20.94
2018-09-23T05:28:36.787Z,20.95
2018-09-23T05:29:36.590Z,20.93
2018-09-23T05:30:36.690Z,20.96
2018-09-23T05:31:36.788Z,20.96
2018-09-23T05:32:37.302Z,20.95
2018-09-23T05:33:36.694Z,20.96
2018-09-23T05:34:36.690Z,20.95
2018-09-23T05:35:36.921Z,20.98
2018-09-23T05:36:36.697Z,20.92
2018-09-23T05:37:36.646Z,20.96
2018-09-23T05:38:38.967Z,20.99
2018-09-23T05:39:38.388Z,20.98
2018-09-23T05:40:37.220Z,20.98
2018-09-23T05:41:36.752Z,20.96
2018-09-23T05:42:36.735Z,20.98
2018-09-23T05:43:36.831Z,20.98
2018-09-23T05:44:36.916Z,20.96
2018-09-23T05:45:37.089Z,20.96
2018-09-23T05:46:36.916Z,20.96
2018-09-23T05:47:38.590Z,20.96
2018-09-23T05:48:38.606Z,20.96
2018-09-23T05:49:37.016Z,20.98
2018-09-23T05:50:38.728Z,20.96
2018-09-23T05:51:36.742Z,20.96
2018-09-23T05:52:39.887Z,20.98
2018-09-23T05:53:36.837Z,20.96
2018-09-23T05:54:36.731Z,20.96
2018-09-23T05:55:36.729Z,20.96
2018-09-23T05:56:36.940Z,20.96
2018-09-23T05:57:36.739Z,20.96
2018-09-23T05:58:36.594Z,20.99
2018-09-23T05:59:36.663Z,20.96
2018-09-23T06:00:36.819Z,20.96
2018-09-23T06:01:36.874Z,20.98
2018-09-23T06:02:36.557Z,20.96
2018-09-23T06:03:36.765Z,20.95
2018-09-23T06:04:36.895Z,20.99
2018-09-23T06:05:36.704Z,20.95
2018-09-23T06:06:36.741Z,20.96
2018-09-23T06:07:36.837Z,20.99
2018-09-23T06:08:36.626Z,21
2018-09-23T06:09:36.684Z,20.96
2018-09-23T06:10:36.531Z,21
2018-09-23T06:11:36.818Z,20.96
2018-09-23T06:12:36.610Z,20.95
2018-09-23T06:13:36.597Z,20.96
2018-09-23T06:14:36.741Z,20.99
2018-09-23T06:15:36.615Z,20.96
2018-09-23T06:16:40.482Z,20.96
2018-09-23T06:17:36.804Z,20.96
2018-09-23T06:18:36.704Z,20.98
2018-09-23T06:19:36.742Z,20.95
2018-09-23T06:20:36.749Z,20.96
2018-09-23T06:21:36.762Z,20.95
2018-09-23T06:22:36.578Z,20.96
2018-09-23T06:23:36.827Z,20.96
2018-09-23T06:24:37.290Z,20.96
2018-09-23T06:25:36.944Z,20.99
2018-09-23T06:26:36.690Z,20.98
2018-09-23T06:27:36.884Z,20.95
2018-09-23T06:28:36.811Z,20.96
2018-09-23T06:29:36.846Z,20.96
2018-09-23T06:30:36.674Z,20.95
2018-09-23T06:31:36.682Z,20.98
2018-09-23T06:32:36.859Z,20.98
2018-09-23T06:33:36.839Z,20.96
2018-09-23T06:34:37.009Z,20.99
2018-09-23T06:35:36.561Z,20.96
2018-09-23T06:36:36.853Z,20.99
2018-09-23T06:37:36.822Z,20.96
2018-09-23T06:38:36.780Z,20.96
2018-09-23T06:39:36.602Z,20.96
2018-09-23T06:40:36.995Z,20.98
2018-09-23T06:41:37.064Z,20.98
2018-09-23T06:42:37.094Z,20.95
2018-09-23T06:43:37.490Z,20.96
2018-09-23T06:44:36.795Z,20.96
2018-09-23T06:45:37.138Z,20.96
2018-09-23T06:46:36.900Z,20.99
2018-09-23T06:47:36.714Z,20.99
2018-09-23T06:48:36.713Z,20.95
2018-09-23T06:49:36.645Z,20.95
2018-09-23T06:50:36.718Z,20.96
2018-09-23T06:51:36.767Z,20.98
2018-09-23T06:52:37.471Z,20.96
2018-09-23T06:53:36.640Z,20.98
2018-09-23T06:54:38.278Z,20.98
2018-09-23T06:55:37.537Z,20.99
2018-09-23T06:56:36.737Z,20.99
2018-09-23T06:57:36.846Z,20.98
2018-09-23T06:58:36.873Z,20.99
2018-09-23T07:00:36.735Z,20.98
2018-09-23T07:01:38.172Z,20.99
2018-09-23T07:02:36.901Z,20.98
2018-09-23T07:03:36.812Z,20.96
2018-09-23T07:04:37.450Z,20.98
2018-09-23T07:05:36.990Z,20.98
2018-09-23T07:06:37.054Z,20.98
2018-09-23T07:07:37.091Z,20.98
2018-09-23T07:08:36.743Z,20.98
2018-09-23T07:09:36.892Z,20.98
2018-09-23T07:10:37.787Z,20.99
2018-09-23T07:11:36.787Z,20.96
2018-09-23T07:12:36.959Z,20.95
2018-09-23T07:13:36.696Z,20.98
2018-09-23T07:14:36.810Z,20.99
2018-09-23T07:15:36.610Z,20.99
2018-09-23T07:16:36.665Z,20.98
2018-09-23T07:17:36.741Z,20.99
2018-09-23T07:18:36.734Z,20.96
2018-09-23T07:19:36.829Z,20.99
2018-09-23T07:20:36.972Z,21
2018-09-23T07:21:36.588Z,20.95
2018-09-23T07:22:36.803Z,21
2018-09-23T07:23:37.070Z,20.98
2018-09-23T07:24:36.724Z,20.96
2018-09-23T07:28:36.777Z,20.98
2018-09-23T07:29:36.937Z,20.99
2018-09-23T07:30:36.745Z,20.98
2018-09-23T07:31:36.724Z,21.01
2018-09-23T07:32:36.696Z,20.98
2018-09-23T07:33:36.776Z,20.98
2018-09-23T07:34:36.747Z,21
2018-09-23T07:35:36.600Z,21
2018-09-23T07:36:36.907Z,21
2018-09-23T07:37:36.594Z,20.99
2018-09-23T07:38:36.853Z,20.98
2018-09-23T07:39:37.569Z,20.96
2018-09-23T07:40:36.808Z,20.98
2018-09-23T07:41:37.382Z,20.99
2018-09-23T07:42:36.813Z,20.99
2018-09-23T07:43:36.689Z,20.99
2018-09-23T07:45:36.720Z,20.99
2018-09-23T07:46:36.756Z,20.99
2018-09-23T07:47:36.846Z,20.98
2018-09-23T07:48:36.847Z,21
2018-09-23T07:49:36.936Z,20.99
2018-09-23T07:50:36.608Z,21.02
2018-09-23T07:51:36.991Z,20.98
2018-09-23T07:52:36.858Z,21
2018-09-23T07:53:36.655Z,20.98
2018-09-23T07:54:36.806Z,21
2018-09-23T07:55:37.013Z,20.99
2018-09-23T07:56:37.668Z,21.01
2018-09-23T07:57:36.842Z,20.96
2018-09-23T07:58:36.763Z,21
2018-09-23T07:59:36.800Z,21
2018-09-23T08:00:36.762Z,21
2018-09-23T08:01:36.943Z,21
2018-09-23T08:02:36.887Z,21
2018-09-23T08:03:37.939Z,20.99
2018-09-23T08:04:37.807Z,21.01
2018-09-23T08:05:36.640Z,20.99
2018-09-23T08:06:36.795Z,21
2018-09-23T08:07:36.803Z,21
2018-09-23T08:08:37.342Z,21
2018-09-23T08:09:36.812Z,20.99
2018-09-23T08:11:36.792Z,21
2018-09-23T08:12:38.197Z,20.99
2018-09-23T08:13:40.592Z,21.02
2018-09-23T08:14:40.353Z,21
2018-09-23T08:15:36.821Z,21
2018-09-23T08:17:37.039Z,21
2018-09-23T08:18:36.730Z,21
2018-09-23T08:19:38.271Z,21.01
2018-09-23T08:20:37.802Z,21.02
2018-09-23T08:21:36.702Z,21
2018-09-23T08:22:36.796Z,21.02
2018-09-23T08:23:36.686Z,20.99
2018-09-23T08:24:36.835Z,21
2018-09-23T08:25:37.541Z,21
2018-09-23T08:26:37.781Z,21
2018-09-23T08:27:36.813Z,21
2018-09-23T08:28:36.908Z,21
2018-09-23T08:29:36.877Z,20.99
2018-09-23T08:30:37.989Z,21
2018-09-23T08:31:36.490Z,21.02
2018-09-23T08:36:36.730Z,21.03
2018-09-23T08:37:36.896Z,21.06
2018-09-23T08:38:37.009Z,21.05
2018-09-23T08:39:36.782Z,21.06
2018-09-23T08:40:38.286Z,21.06
2018-09-23T08:41:36.738Z,21.07
2018-09-23T08:42:36.580Z,21.05
2018-09-23T08:43:36.952Z,21.09
2018-09-23T08:44:37.068Z,21.1
2018-09-23T08:45:36.534Z,21.13
2018-09-23T08:46:36.773Z,21.11
2018-09-23T08:47:36.840Z,21.14
2018-09-23T08:48:36.568Z,21.11
2018-09-23T08:49:36.850Z,21.13
2018-09-23T08:50:36.821Z,21.15
2018-09-23T08:51:36.836Z,21.14
2018-09-23T08:52:36.997Z,21.14
2018-09-23T08:53:36.925Z,21.16
2018-09-23T08:55:36.900Z,21.15
2018-09-23T08:56:37.220Z,21.16
2018-09-23T08:57:36.962Z,21.17
2018-09-23T08:58:36.625Z,21.17
2018-09-23T08:59:36.944Z,21.18
2018-09-23T09:00:28.111Z,21.17
2018-09-23T09:01:28.074Z,21.07
2018-09-23T09:02:28.462Z,21.03
2018-09-23T09:03:28.453Z,21
2018-09-23T09:04:28.446Z,21
2018-09-23T09:05:28.250Z,21.01
2018-09-23T09:06:28.451Z,20.96
2018-09-23T09:07:28.406Z,20.99
2018-09-23T09:08:28.344Z,21
2018-09-23T09:09:28.313Z,20.99
2018-09-23T09:10:28.524Z,20.96
2018-09-23T09:11:28.948Z,20.95
2018-09-23T09:12:31.763Z,20.98
2018-09-23T09:13:31.698Z,20.99
2018-09-23T09:14:31.704Z,20.98
2018-09-23T09:15:31.575Z,21
2018-09-23T09:16:31.884Z,20.99
2018-09-23T09:17:31.651Z,21
2018-09-23T09:18:32.844Z,21.02
2018-09-23T09:19:31.888Z,20.99
2018-09-23T09:20:31.603Z,21.01
2018-09-23T09:21:31.713Z,21.03
2018-09-23T09:22:31.667Z,21.02
2018-09-23T09:23:31.981Z,21.04
2018-09-23T09:24:31.571Z,21.03
2018-09-23T09:25:31.871Z,21.05
2018-09-23T09:26:32.147Z,21.07
2018-09-23T09:27:31.800Z,21.06
2018-09-23T09:28:31.484Z,21.06
2018-09-23T09:29:31.882Z,21.05
2018-09-23T09:30:31.474Z,21.08
2018-09-23T09:31:31.842Z,21.06
2018-09-23T09:32:31.594Z,21.06
2018-09-23T09:33:31.737Z,21.08
2018-09-23T09:34:31.598Z,21.07
2018-09-23T09:35:38.150Z,21.09
2018-09-23T09:36:38.371Z,21.1
2018-09-23T09:37:38.712Z,21.09
2018-09-23T09:38:38.661Z,21.06
2018-09-23T09:39:38.069Z,21.08
2018-09-23T09:40:38.548Z,21.05
2018-09-23T09:41:38.570Z,21.09
2018-09-23T09:42:38.747Z,21.09
2018-09-23T09:43:38.377Z,21.11
2018-09-23T09:44:38.165Z,21.06
2018-09-23T09:45:38.595Z,21.06
2018-09-23T09:46:38.505Z,21.05
2018-09-23T09:47:38.715Z,21.1
2018-09-23T09:48:38.007Z,21.06
2018-09-23T09:49:38.093Z,21.06
2018-09-23T09:50:38.254Z,21.06
2018-09-23T09:51:38.265Z,21.06
2018-09-23T09:52:38.335Z,21.04
2018-09-23T09:53:38.200Z,21.06
2018-09-23T09:54:38.184Z,21.08
2018-09-23T09:55:38.469Z,21.07
2018-09-23T09:56:38.465Z,21.09
2018-09-23T09:57:39.281Z,21.06
2018-09-23T09:58:38.215Z,21.05
2018-09-23T09:59:38.276Z,21.09
2018-09-23T10:00:38.125Z,21.06
2018-09-23T10:01:38.344Z,21.09
2018-09-23T10:02:38.147Z,21.09
2018-09-23T10:03:38.831Z,21.09
2018-09-23T10:04:38.373Z,21.09
2018-09-23T10:05:38.084Z,21.1
2018-09-23T10:06:38.175Z,21.14
2018-09-23T10:07:38.177Z,21.09
2018-09-23T10:08:38.184Z,21.11
2018-09-23T10:09:38.615Z,21.11
2018-09-23T10:10:38.167Z,21.13
2018-09-23T10:11:39.676Z,21.14
2018-09-23T10:12:38.074Z,21.14
2018-09-23T10:13:38.205Z,21.16
2018-09-23T10:15:43.697Z,21.15
2018-09-23T10:16:31.927Z,21.11
2018-09-23T10:17:29.649Z,21.16
2018-09-23T10:18:38.776Z,21.15
2018-09-23T10:19:38.898Z,21.15
2018-09-23T10:20:39.064Z,21.16
2018-09-23T10:21:39.012Z,21.17
2018-09-23T10:23:16.093Z,21.15
2018-09-23T10:24:15.012Z,21.17
2018-09-23T10:25:15.222Z,21.17
2018-09-23T10:26:07.833Z,21.17
2018-09-23T10:27:08.106Z,21.16
2018-09-23T10:28:07.718Z,21.16
2018-09-23T10:29:07.749Z,21.15
2018-09-23T10:30:08.102Z,21.14
2018-09-23T10:31:08.552Z,21.17
2018-09-23T10:32:07.835Z,21.19
2018-09-23T10:33:07.641Z,21.18
2018-09-23T10:34:08.079Z,21.16
2018-09-23T10:35:07.671Z,21.19
2018-09-23T10:36:08.102Z,21.15
2018-09-23T10:37:07.589Z,21.17
2018-09-23T10:38:07.693Z,21.17
2018-09-23T10:39:07.816Z,21.16
2018-09-23T10:40:07.649Z,21.16
2018-09-23T10:41:08.009Z,21.15
2018-09-23T10:42:07.667Z,21.11
2018-09-23T10:43:07.732Z,21.13
2018-09-23T10:44:07.976Z,21.13
2018-09-23T10:45:07.526Z,21.11
2018-09-23T10:46:07.674Z,21.14
2018-09-23T10:47:07.966Z,21.15
2018-09-23T10:48:07.655Z,21.14
2018-09-23T10:48:54.674Z,21.1
2018-09-23T10:49:44.902Z,21.1
2018-09-23T10:50:45.063Z,21.1
2018-09-23T10:51:44.908Z,21.13
2018-09-23T10:52:45.036Z,21.16
2018-09-23T10:56:08.346Z,21.14
2018-09-23T10:57:02.281Z,21.14
2018-09-23T10:58:02.664Z,21.14
2018-09-23T10:59:02.799Z,21.15
2018-09-23T11:00:02.460Z,21.2
2018-09-23T11:01:02.412Z,21.17
2018-09-23T11:02:02.378Z,21.19
2018-09-23T11:03:13.688Z,21.17
2018-09-23T11:04:14.828Z,21.18
2018-09-23T11:05:14.848Z,21.19
2018-09-23T11:06:13.763Z,21.21
2018-09-23T11:07:14.133Z,21.17
2018-09-23T11:08:13.982Z,21.16
2018-09-23T11:09:13.925Z,21.17
2018-09-23T11:10:14.130Z,21.16
2018-09-23T11:11:14.068Z,21.15
2018-09-23T11:12:14.197Z,21.15
2018-09-23T11:13:33.955Z,21.13
2018-09-23T11:15:03.202Z,21.1
2018-09-23T11:15:31.445Z,21.13
2018-09-23T11:16:31.240Z,21.1
2018-09-23T11:17:31.691Z,21.11
2018-09-23T11:18:31.559Z,21.1
2018-09-23T11:19:31.089Z,21.1
2018-09-23T11:20:31.358Z,21.11
2018-09-23T11:21:31.360Z,21.15
2018-09-23T11:22:31.287Z,21.11
2018-09-23T11:23:31.772Z,21.1
2018-09-23T11:24:55.731Z,21.09
2018-09-23T11:25:54.783Z,21.09
2018-09-23T11:26:37.621Z,21.1
2018-09-23T11:28:04.753Z,21.11
2018-09-23T11:29:24.746Z,21.1
2018-09-23T11:30:24.852Z,21.11
2018-09-23T11:31:48.857Z,21.13
2018-09-23T11:38:52.296Z,21.17
2018-09-23T11:39:54.285Z,21.15
2018-09-23T11:40:53.888Z,21.17
2018-09-23T11:41:53.987Z,21.19
2018-09-23T11:43:11.988Z,21.18
2018-09-23T11:44:11.998Z,21.14
2018-09-23T11:45:12.188Z,21.1
2018-09-23T11:46:12.006Z,21.09
2018-09-23T11:47:12.124Z,21.09
2018-09-23T11:48:12.029Z,21.07
2018-09-23T11:49:12.172Z,21.05
2018-09-23T11:50:12.222Z,21.05
2018-09-23T11:51:11.949Z,21.04
2018-09-23T11:52:12.097Z,21.07
2018-09-23T11:53:11.963Z,21.06
2018-09-23T11:54:11.935Z,21.02
2018-09-23T11:55:12.525Z,21
2018-09-23T11:56:12.131Z,20.98
2018-09-23T11:57:12.090Z,20.96
2018-09-23T11:58:11.944Z,20.95
2018-09-23T11:59:12.448Z,20.95
2018-09-23T12:00:11.907Z,20.94
2018-09-23T12:01:12.206Z,20.94
2018-09-23T12:02:12.888Z,20.94
2018-09-23T12:03:11.989Z,20.93
2018-09-23T12:04:12.081Z,20.93
2018-09-23T12:05:12.058Z,20.94
2018-09-23T12:06:11.866Z,20.93
2018-09-23T12:07:12.238Z,20.94
2018-09-23T12:08:12.350Z,20.92
2018-09-23T12:09:12.020Z,20.91
2018-09-23T12:10:12.509Z,20.93
2018-09-23T12:11:12.274Z,20.92
2018-09-23T12:12:12.216Z,20.91
2018-09-23T12:13:12.222Z,20.92
2018-09-23T12:14:12.288Z,20.9
2018-09-23T12:15:12.288Z,20.9
2018-09-23T12:16:12.031Z,20.88
2018-09-23T12:17:12.130Z,20.88
2018-09-23T12:18:11.890Z,20.88
2018-09-23T12:19:11.988Z,20.88
2018-09-23T12:20:12.050Z,20.86
2018-09-23T12:21:11.991Z,20.85
2018-09-23T12:22:12.868Z,20.86
2018-09-23T12:23:12.395Z,20.88
2018-09-23T12:24:11.891Z,20.86
2018-09-23T12:25:12.264Z,20.85
2018-09-23T12:26:12.216Z,20.84
2018-09-23T12:27:12.098Z,20.84
2018-09-23T12:28:12.280Z,20.84
2018-09-23T12:29:12.319Z,20.83
2018-09-23T12:30:12.192Z,20.84
2018-09-23T12:31:12.118Z,20.81
2018-09-23T12:32:12.219Z,20.83
2018-09-23T12:33:12.922Z,20.85
2018-09-23T12:34:12.133Z,20.84
2018-09-23T12:35:12.071Z,20.85
2018-09-23T12:36:12.182Z,20.87
2018-09-23T12:37:12.377Z,20.9
2018-09-23T12:38:11.910Z,20.9
2018-09-23T12:39:12.138Z,20.91
2018-09-23T12:40:12.191Z,20.92
2018-09-23T12:41:11.957Z,20.88
2018-09-23T12:42:12.260Z,20.89
2018-09-23T12:43:12.144Z,20.91
2018-09-23T12:44:12.211Z,20.9
2018-09-23T12:45:11.951Z,20.9
2018-09-23T12:46:13.139Z,20.88
2018-09-23T12:47:12.240Z,20.88
2018-09-23T12:48:12.059Z,20.89
2018-09-23T12:49:11.856Z,20.9
2018-09-23T12:50:12.086Z,20.91
2018-09-23T12:51:12.422Z,20.93
2018-09-23T12:52:12.085Z,20.95
2018-09-23T12:53:12.000Z,20.95
2018-09-23T12:54:11.938Z,20.94
2018-09-23T12:55:12.080Z,20.96
2018-09-23T12:56:12.110Z,20.93
2018-09-23T12:57:12.085Z,20.95
2018-09-23T12:58:12.043Z,20.93
2018-09-23T12:59:12.136Z,20.92
2018-09-23T13:00:11.945Z,20.94
2018-09-23T13:01:11.985Z,20.98
2018-09-23T13:02:11.908Z,20.96
2018-09-23T13:03:13.257Z,20.96
2018-09-23T13:04:12.084Z,20.96
2018-09-23T13:05:12.202Z,20.95
2018-09-23T13:06:12.032Z,20.98
2018-09-23T13:07:11.976Z,21
2018-09-23T13:08:12.085Z,21
2018-09-23T13:09:12.052Z,21.02
2018-09-23T13:10:12.122Z,21.01
2018-09-23T13:11:11.916Z,21.01
2018-09-23T13:12:12.332Z,20.99
2018-09-23T13:13:11.982Z,21.02
2018-09-23T13:14:12.340Z,21
2018-09-23T13:15:12.069Z,21.02
2018-09-23T13:16:12.071Z,21.07
2018-09-23T13:17:12.139Z,21.06
2018-09-23T13:18:13.547Z,21.07
2018-09-23T13:19:12.210Z,21.1
2018-09-23T13:20:12.296Z,21.09
2018-09-23T13:21:12.121Z,21.15
2018-09-23T13:22:12.429Z,21.18
2018-09-23T13:23:12.100Z,21.17
2018-09-23T13:24:12.311Z,21.21